sensor_id;sensor_type;location;lat;lon;timestamp;pressure;altitude;pressure_sealevel;temperature;humidity
12951;BME280;6540;50.858;7.232;2023-01-27T00:00:00;51943.31;;;-142.34;29.74
12951;BME280;6540;50.858;7.232;2023-01-27T00:02:25;51975.59;;;-142.34;29.59
12951;BME280;6540;50.858;7.232;2023-01-27T00:04:51;51941.28;;;-142.34;30.04
12951;BME280;6540;50.858;7.232;2023-01-27T00:07:16;51981.63;;;-142.34;30.39
12951;BME280;6540;50.858;7.232;2023-01-27T00:09:41;51957.44;;;-142.34;30.06
12951;BME280;6540;50.858;7.232;2023-01-27T00:12:17;51981.63;;;-142.34;29.67
12951;BME280;6540;50.858;7.232;2023-01-27T00:15:01;51977.59;;;-142.34;29.41
12951;BME280;6540;50.858;7.232;2023-01-27T00:17:28;51953.41;;;-142.34;29.95
12951;BME280;6540;50.858;7.232;2023-01-27T00:19:53;51957.44;;;-142.34;29.27
12951;BME280;6540;50.858;7.232;2023-01-27T00:22:18;51943.31;;;-142.34;29.54
12951;BME280;6540;50.858;7.232;2023-01-27T00:25:03;51971.53;;;-142.34;29.56
12951;BME280;6540;50.858;7.232;2023-01-27T00:27:28;51961.47;;;-142.34;29.59
12951;BME280;6540;50.858;7.232;2023-01-27T00:29:53;51991.72;;;-142.34;29.54
12951;BME280;6540;50.858;7.232;2023-01-27T00:32:19;51999.78;;;-142.34;29.38
12951;BME280;6540;50.858;7.232;2023-01-27T00:35:03;51898.94;;;-142.34;29.93
12951;BME280;6540;50.858;7.232;2023-01-27T00:37:29;51923.13;;;-142.34;30.15
12951;BME280;6540;50.858;7.232;2023-01-27T00:39:54;51999.78;;;-142.34;29.92
12951;BME280;6540;50.858;7.232;2023-01-27T00:42:20;51925.16;;;-142.34;29.83
12951;BME280;6540;50.858;7.232;2023-01-27T00:44:45;51949.34;;;-142.34;29.87
12951;BME280;6540;50.858;7.232;2023-01-27T00:47:30;51975.59;;;-142.34;29.93
12951;BME280;6540;50.858;7.232;2023-01-27T00:49:56;51959.44;;;-142.34;29.85
12951;BME280;6540;50.858;7.232;2023-01-27T00:52:21;51933.22;;;-142.34;29.46
12951;BME280;6540;50.858;7.232;2023-01-27T00:54:46;51955.41;;;-142.34;29.86
12951;BME280;6540;50.858;7.232;2023-01-27T00:57:12;51979.63;;;-142.34;29.85
12951;BME280;6540;50.858;7.232;2023-01-27T00:59:37;51963.47;;;-142.34;30.05
12951;BME280;6540;50.858;7.232;2023-01-27T01:02:02;51947.34;;;-142.34;29.73
12951;BME280;6540;50.858;7.232;2023-01-27T01:04:28;51971.53;;;-142.34;30.18
12951;BME280;6540;50.858;7.232;2023-01-27T01:06:53;51947.34;;;-142.34;29.78
12951;BME280;6540;50.858;7.232;2023-01-27T01:09:18;51937.25;;;-142.34;30.21
12951;BME280;6540;50.858;7.232;2023-01-27T01:11:44;51977.59;;;-142.34;29.92
12951;BME280;6540;50.858;7.232;2023-01-27T01:14:09;51971.53;;;-142.34;30.01
12951;BME280;6540;50.858;7.232;2023-01-27T01:16:34;51977.59;;;-142.34;29.35
12951;BME280;6540;50.858;7.232;2023-01-27T01:19:00;51987.69;;;-142.34;29.82
12951;BME280;6540;50.858;7.232;2023-01-27T01:21:25;51981.63;;;-142.34;29.60
12951;BME280;6540;50.858;7.232;2023-01-27T01:23:50;51979.63;;;-142.34;29.97
12951;BME280;6540;50.858;7.232;2023-01-27T01:26:16;51935.25;;;-142.34;29.56
12951;BME280;6540;50.858;7.232;2023-01-27T01:28:43;51951.38;;;-142.34;30.29
12951;BME280;6540;50.858;7.232;2023-01-27T01:31:14;51985.66;;;-142.34;29.40
12951;BME280;6540;50.858;7.232;2023-01-27T01:33:40;51959.44;;;-142.34;29.81
12951;BME280;6540;50.858;7.232;2023-01-27T01:36:11;51947.34;;;-142.34;30.07
12951;BME280;6540;50.858;7.232;2023-01-27T01:38:36;51963.47;;;-142.34;30.78
12951;BME280;6540;50.858;7.232;2023-01-27T01:41:03;52005.84;;;-142.34;29.75
12951;BME280;6540;50.858;7.232;2023-01-27T01:43:28;51995.75;;;-142.34;30.40
12951;BME280;6540;50.858;7.232;2023-01-27T01:46:03;51945.31;;;-142.34;29.99
12951;BME280;6540;50.858;7.232;2023-01-27T01:48:45;51943.31;;;-142.34;31.23
12951;BME280;6540;50.858;7.232;2023-01-27T01:51:16;51963.47;;;-142.34;31.12
12951;BME280;6540;50.858;7.232;2023-01-27T01:54:02;51963.47;;;-142.34;30.04
12951;BME280;6540;50.858;7.232;2023-01-27T01:56:40;51963.47;;;-142.34;29.92
12951;BME280;6540;50.858;7.232;2023-01-27T01:59:18;51959.44;;;-142.34;31.13
12951;BME280;6540;50.858;7.232;2023-01-27T02:01:48;51979.63;;;-142.34;30.36
12951;BME280;6540;50.858;7.232;2023-01-27T02:04:17;51931.19;;;-142.34;29.94
12951;BME280;6540;50.858;7.232;2023-01-27T02:07:08;51959.44;;;-142.34;29.82
12951;BME280;6540;50.858;7.232;2023-01-27T02:09:37;51931.19;;;-142.34;30.19
12951;BME280;6540;50.858;7.232;2023-01-27T02:12:03;51955.41;;;-142.34;30.08
12951;BME280;6540;50.858;7.232;2023-01-27T02:14:29;51973.56;;;-142.34;29.50
12951;BME280;6540;50.858;7.232;2023-01-27T02:16:54;51955.41;;;-142.34;29.75
12951;BME280;6540;50.858;7.232;2023-01-27T02:19:26;51941.28;;;-142.34;29.93
12951;BME280;6540;50.858;7.232;2023-01-27T02:21:56;51973.56;;;-142.34;29.68
12951;BME280;6540;50.858;7.232;2023-01-27T02:24:30;51927.16;;;-142.34;29.66
12951;BME280;6540;50.858;7.232;2023-01-27T02:26:58;51919.09;;;-142.34;30.43
12951;BME280;6540;50.858;7.232;2023-01-27T02:29:23;51967.50;;;-142.34;31.12
12951;BME280;6540;50.858;7.232;2023-01-27T02:31:48;51983.66;;;-142.34;32.91
12951;BME280;6540;50.858;7.232;2023-01-27T02:34:16;51977.59;;;-142.34;31.47
12951;BME280;6540;50.858;7.232;2023-01-27T02:37:05;51937.25;;;-142.34;30.14
12951;BME280;6540;50.858;7.232;2023-01-27T02:39:36;51915.06;;;-142.34;30.33
12951;BME280;6540;50.858;7.232;2023-01-27T02:42:04;51947.34;;;-142.34;31.76
12951;BME280;6540;50.858;7.232;2023-01-27T02:44:30;51973.56;;;-142.34;31.00
12951;BME280;6540;50.858;7.232;2023-01-27T02:46:56;51927.16;;;-142.34;30.26
12951;BME280;6540;50.858;7.232;2023-01-27T02:49:21;51951.38;;;-142.34;29.90
12951;BME280;6540;50.858;7.232;2023-01-27T02:51:47;51991.72;;;-142.34;30.87
12951;BME280;6540;50.858;7.232;2023-01-27T02:54:12;51937.25;;;-142.34;30.37
12951;BME280;6540;50.858;7.232;2023-01-27T02:56:37;51957.44;;;-142.34;30.55
12951;BME280;6540;50.858;7.232;2023-01-27T02:59:03;51909.00;;;-142.34;30.45
12951;BME280;6540;50.858;7.232;2023-01-27T03:01:28;51941.28;;;-142.34;31.18
12951;BME280;6540;50.858;7.232;2023-01-27T03:03:56;51959.44;;;-142.34;30.53
12951;BME280;6540;50.858;7.232;2023-01-27T03:06:22;51971.53;;;-142.34;30.12
12951;BME280;6540;50.858;7.232;2023-01-27T03:08:47;51937.25;;;-142.34;30.20
12951;BME280;6540;50.858;7.232;2023-01-27T03:11:12;51975.59;;;-142.34;30.82
12951;BME280;6540;50.858;7.232;2023-01-27T03:13:38;51957.44;;;-142.34;31.69
12951;BME280;6540;50.858;7.232;2023-01-27T03:16:04;51975.59;;;-142.34;30.22
12951;BME280;6540;50.858;7.232;2023-01-27T03:18:49;51927.16;;;-142.34;30.83
12951;BME280;6540;50.858;7.232;2023-01-27T03:21:17;51951.38;;;-142.34;30.09
12951;BME280;6540;50.858;7.232;2023-01-27T03:23:43;52003.81;;;-142.34;30.45
12951;BME280;6540;50.858;7.232;2023-01-27T03:26:10;51951.38;;;-142.34;30.58
12951;BME280;6540;50.858;7.232;2023-01-27T03:28:36;51983.66;;;-142.34;31.33
12951;BME280;6540;50.858;7.232;2023-01-27T03:31:06;51959.44;;;-142.34;30.56
12951;BME280;6540;50.858;7.232;2023-01-27T03:33:32;51967.50;;;-142.34;29.97
12951;BME280;6540;50.858;7.232;2023-01-27T03:36:02;51951.38;;;-142.34;29.58
12951;BME280;6540;50.858;7.232;2023-01-27T03:38:46;51941.28;;;-142.34;29.16
12951;BME280;6540;50.858;7.232;2023-01-27T03:41:30;51959.44;;;-142.34;29.45
12951;BME280;6540;50.858;7.232;2023-01-27T03:44:14;51999.78;;;-142.34;29.29
12951;BME280;6540;50.858;7.232;2023-01-27T03:46:58;51963.47;;;-142.34;29.90
12951;BME280;6540;50.858;7.232;2023-01-27T03:49:23;51953.41;;;-142.34;30.99
12951;BME280;6540;50.858;7.232;2023-01-27T03:51:49;51943.31;;;-142.34;29.79
12951;BME280;6540;50.858;7.232;2023-01-27T03:54:14;51939.28;;;-142.34;29.95
12951;BME280;6540;50.858;7.232;2023-01-27T03:56:40;51951.38;;;-142.34;30.06
12951;BME280;6540;50.858;7.232;2023-01-27T03:59:05;52001.81;;;-142.34;29.58
12951;BME280;6540;50.858;7.232;2023-01-27T04:01:30;51985.66;;;-142.34;29.76
12951;BME280;6540;50.858;7.232;2023-01-27T04:03:55;51943.31;;;-142.34;29.59
12951;BME280;6540;50.858;7.232;2023-01-27T04:06:41;51971.53;;;-142.34;29.23
12951;BME280;6540;50.858;7.232;2023-01-27T04:09:30;51959.44;;;-142.34;29.08
12951;BME280;6540;50.858;7.232;2023-01-27T04:11:57;51965.50;;;-142.34;29.74
12951;BME280;6540;50.858;7.232;2023-01-27T04:14:30;51947.34;;;-142.34;29.81
12951;BME280;6540;50.858;7.232;2023-01-27T04:17:05;51933.22;;;-142.34;29.14
12951;BME280;6540;50.858;7.232;2023-01-27T04:19:31;51975.59;;;-142.34;29.67
12951;BME280;6540;50.858;7.232;2023-01-27T04:21:57;51987.69;;;-142.34;29.81
12951;BME280;6540;50.858;7.232;2023-01-27T04:24:23;51945.31;;;-142.34;30.00
12951;BME280;6540;50.858;7.232;2023-01-27T04:27:03;51947.34;;;-142.34;29.51
12951;BME280;6540;50.858;7.232;2023-01-27T04:29:32;51965.50;;;-142.34;29.78
12951;BME280;6540;50.858;7.232;2023-01-27T04:31:59;51961.47;;;-142.34;29.56
12951;BME280;6540;50.858;7.232;2023-01-27T04:34:25;51953.41;;;-142.34;29.24
12951;BME280;6540;50.858;7.232;2023-01-27T04:36:51;51909.00;;;-142.34;29.07
12951;BME280;6540;50.858;7.232;2023-01-27T04:39:17;51977.59;;;-142.34;29.34
12951;BME280;6540;50.858;7.232;2023-01-27T04:41:43;51979.63;;;-142.34;29.82
12951;BME280;6540;50.858;7.232;2023-01-27T04:44:09;52011.91;;;-142.34;30.02
12951;BME280;6540;50.858;7.232;2023-01-27T04:46:36;51959.44;;;-142.34;29.74
12951;BME280;6540;50.858;7.232;2023-01-27T04:49:02;51961.47;;;-142.34;29.74
12951;BME280;6540;50.858;7.232;2023-01-27T04:51:28;51975.59;;;-142.34;29.36
12951;BME280;6540;50.858;7.232;2023-01-27T04:53:54;51963.47;;;-142.34;28.84
12951;BME280;6540;50.858;7.232;2023-01-27T04:56:27;51943.31;;;-142.34;29.19
12951;BME280;6540;50.858;7.232;2023-01-27T04:58:57;51983.66;;;-142.34;29.04
12951;BME280;6540;50.858;7.232;2023-01-27T05:01:23;51951.38;;;-142.34;29.15
12951;BME280;6540;50.858;7.232;2023-01-27T05:03:48;51961.47;;;-142.34;29.34
12951;BME280;6540;50.858;7.232;2023-01-27T05:06:14;51951.38;;;-142.34;29.28
12951;BME280;6540;50.858;7.232;2023-01-27T05:08:39;51971.53;;;-142.34;29.14
12951;BME280;6540;50.858;7.232;2023-01-27T05:11:05;51985.66;;;-142.34;29.64
12951;BME280;6540;50.858;7.232;2023-01-27T05:13:31;51935.25;;;-142.34;29.57
12951;BME280;6540;50.858;7.232;2023-01-27T05:18:38;51953.41;;;-142.34;29.56
12951;BME280;6540;50.858;7.232;2023-01-27T05:21:04;51963.47;;;-142.34;29.16
12951;BME280;6540;50.858;7.232;2023-01-27T05:23:30;51959.44;;;-142.34;28.92
12951;BME280;6540;50.858;7.232;2023-01-27T05:26:21;51979.63;;;-142.34;29.25
12951;BME280;6540;50.858;7.232;2023-01-27T05:28:48;51981.63;;;-142.34;29.19
12951;BME280;6540;50.858;7.232;2023-01-27T05:31:18;51931.19;;;-142.34;29.17
12951;BME280;6540;50.858;7.232;2023-01-27T05:33:45;51941.28;;;-142.34;29.51
12951;BME280;6540;50.858;7.232;2023-01-27T05:36:13;51971.53;;;-142.34;29.36
12951;BME280;6540;50.858;7.232;2023-01-27T05:38:38;51939.28;;;-142.34;29.24
12951;BME280;6540;50.858;7.232;2023-01-27T05:41:06;51943.31;;;-142.34;29.40
12951;BME280;6540;50.858;7.232;2023-01-27T05:43:33;51947.34;;;-142.34;29.32
12951;BME280;6540;50.858;7.232;2023-01-27T05:46:05;51951.38;;;-142.34;29.16
12951;BME280;6540;50.858;7.232;2023-01-27T05:48:30;51937.25;;;-142.34;29.17
12951;BME280;6540;50.858;7.232;2023-01-27T05:50:57;51961.47;;;-142.34;29.46
12951;BME280;6540;50.858;7.232;2023-01-27T05:53:23;51959.44;;;-142.34;29.17
12951;BME280;6540;50.858;7.232;2023-01-27T05:55:50;51931.19;;;-142.34;29.26
12951;BME280;6540;50.858;7.232;2023-01-27T05:58:15;51959.44;;;-142.34;29.04
12951;BME280;6540;50.858;7.232;2023-01-27T06:00:41;51911.03;;;-142.34;29.19
12951;BME280;6540;50.858;7.232;2023-01-27T06:03:06;51945.31;;;-142.34;29.31
12951;BME280;6540;50.858;7.232;2023-01-27T06:05:32;51943.31;;;-142.34;29.34
12951;BME280;6540;50.858;7.232;2023-01-27T06:07:58;51939.28;;;-142.34;29.18
12951;BME280;6540;50.858;7.232;2023-01-27T06:10:23;51971.53;;;-142.34;29.12
12951;BME280;6540;50.858;7.232;2023-01-27T06:12:49;51955.41;;;-142.34;29.45
12951;BME280;6540;50.858;7.232;2023-01-27T06:15:14;51965.50;;;-142.34;28.95
12951;BME280;6540;50.858;7.232;2023-01-27T06:17:39;51957.44;;;-142.34;29.88
12951;BME280;6540;50.858;7.232;2023-01-27T06:20:05;51947.34;;;-142.34;29.51
12951;BME280;6540;50.858;7.232;2023-01-27T06:22:30;51951.38;;;-142.34;29.74
12951;BME280;6540;50.858;7.232;2023-01-27T06:24:56;51963.47;;;-142.34;29.50
12951;BME280;6540;50.858;7.232;2023-01-27T06:27:21;51923.13;;;-142.34;29.84
12951;BME280;6540;50.858;7.232;2023-01-27T06:29:46;51963.47;;;-142.34;29.56
12951;BME280;6540;50.858;7.232;2023-01-27T06:32:12;51923.13;;;-142.34;29.39
12951;BME280;6540;50.858;7.232;2023-01-27T06:34:37;51947.34;;;-142.34;29.21
12951;BME280;6540;50.858;7.232;2023-01-27T06:37:03;51941.28;;;-142.34;29.31
12951;BME280;6540;50.858;7.232;2023-01-27T06:39:28;51943.31;;;-142.34;29.23
12951;BME280;6540;50.858;7.232;2023-01-27T06:41:53;51955.41;;;-142.34;29.72
12951;BME280;6540;50.858;7.232;2023-01-27T06:44:19;51963.47;;;-142.34;29.61
12951;BME280;6540;50.858;7.232;2023-01-27T06:46:44;51971.53;;;-142.34;29.66
12951;BME280;6540;50.858;7.232;2023-01-27T06:49:09;51935.25;;;-142.34;29.36
12951;BME280;6540;50.858;7.232;2023-01-27T06:51:35;51951.38;;;-142.34;29.86
12951;BME280;6540;50.858;7.232;2023-01-27T06:54:00;51939.28;;;-142.34;29.50
12951;BME280;6540;50.858;7.232;2023-01-27T06:56:25;51951.38;;;-142.34;29.41
12951;BME280;6540;50.858;7.232;2023-01-27T06:58:51;51973.56;;;-142.34;29.21
12951;BME280;6540;50.858;7.232;2023-01-27T07:01:16;51957.44;;;-142.34;29.17
12951;BME280;6540;50.858;7.232;2023-01-27T07:03:41;51973.56;;;-142.34;28.80
12951;BME280;6540;50.858;7.232;2023-01-27T07:06:07;51935.25;;;-142.34;30.36
12951;BME280;6540;50.858;7.232;2023-01-27T07:08:35;51923.13;;;-142.34;29.06
12951;BME280;6540;50.858;7.232;2023-01-27T07:11:03;51941.28;;;-142.34;29.31
12951;BME280;6540;50.858;7.232;2023-01-27T07:13:29;51935.25;;;-142.34;30.02
12951;BME280;6540;50.858;7.232;2023-01-27T07:15:54;51907.00;;;-142.34;29.29
12951;BME280;6540;50.858;7.232;2023-01-27T07:18:20;51947.34;;;-142.34;29.26
12951;BME280;6540;50.858;7.232;2023-01-27T07:20:46;51951.38;;;-142.34;29.51
12951;BME280;6540;50.858;7.232;2023-01-27T07:23:11;51987.69;;;-142.34;29.17
12951;BME280;6540;50.858;7.232;2023-01-27T07:25:37;51995.75;;;-142.34;29.02
12951;BME280;6540;50.858;7.232;2023-01-27T07:28:04;51947.34;;;-142.34;29.66
12951;BME280;6540;50.858;7.232;2023-01-27T07:30:30;51963.47;;;-142.34;29.21
12951;BME280;6540;50.858;7.232;2023-01-27T07:33:05;51955.41;;;-142.34;29.17
12951;BME280;6540;50.858;7.232;2023-01-27T07:35:31;51951.38;;;-142.34;29.17
12951;BME280;6540;50.858;7.232;2023-01-27T07:37:57;51937.25;;;-142.34;29.39
12951;BME280;6540;50.858;7.232;2023-01-27T07:40:23;51935.25;;;-142.34;29.17
12951;BME280;6540;50.858;7.232;2023-01-27T07:42:48;51939.28;;;-142.34;29.04
12951;BME280;6540;50.858;7.232;2023-01-27T07:45:13;51931.19;;;-142.34;29.12
12951;BME280;6540;50.858;7.232;2023-01-27T07:47:39;51927.16;;;-142.34;29.38
12951;BME280;6540;50.858;7.232;2023-01-27T07:50:05;51941.28;;;-142.34;29.07
12951;BME280;6540;50.858;7.232;2023-01-27T07:52:30;51943.31;;;-142.34;29.29
12951;BME280;6540;50.858;7.232;2023-01-27T07:54:56;51955.41;;;-142.34;29.37
12951;BME280;6540;50.858;7.232;2023-01-27T07:57:21;51971.53;;;-142.34;28.97
12951;BME280;6540;50.858;7.232;2023-01-27T07:59:46;51959.44;;;-142.34;29.14
12951;BME280;6540;50.858;7.232;2023-01-27T08:02:12;51953.41;;;-142.34;29.09
12951;BME280;6540;50.858;7.232;2023-01-27T08:04:37;51965.50;;;-142.34;29.09
12951;BME280;6540;50.858;7.232;2023-01-27T08:07:03;51943.31;;;-142.34;28.87
12951;BME280;6540;50.858;7.232;2023-01-27T08:09:29;51923.13;;;-142.34;29.25
12951;BME280;6540;50.858;7.232;2023-01-27T08:11:54;51943.31;;;-142.34;29.09
12951;BME280;6540;50.858;7.232;2023-01-27T08:14:20;51902.97;;;-142.34;28.90
12951;BME280;6540;50.858;7.232;2023-01-27T08:16:45;51894.88;;;-142.34;29.09
12951;BME280;6540;50.858;7.232;2023-01-27T08:19:10;51947.34;;;-142.34;29.43
12951;BME280;6540;50.858;7.232;2023-01-27T08:21:36;51951.38;;;-142.34;29.12
12951;BME280;6540;50.858;7.232;2023-01-27T08:24:01;51949.34;;;-142.34;29.22
12951;BME280;6540;50.858;7.232;2023-01-27T08:26:27;51951.38;;;-142.34;30.31
12951;BME280;6540;50.858;7.232;2023-01-27T08:28:52;51939.28;;;-142.34;28.92
12951;BME280;6540;50.858;7.232;2023-01-27T08:31:18;51923.13;;;-142.34;29.17
12951;BME280;6540;50.858;7.232;2023-01-27T08:33:48;51921.13;;;-142.34;28.99
12951;BME280;6540;50.858;7.232;2023-01-27T08:36:16;51911.03;;;-142.34;28.85
12951;BME280;6540;50.858;7.232;2023-01-27T08:38:43;51943.31;;;-142.34;28.95
12951;BME280;6540;50.858;7.232;2023-01-27T08:41:14;51917.06;;;-142.34;29.07
12951;BME280;6540;50.858;7.232;2023-01-27T08:43:40;51923.13;;;-142.34;28.97
12951;BME280;6540;50.858;7.232;2023-01-27T08:46:07;51955.41;;;-142.34;29.20
12951;BME280;6540;50.858;7.232;2023-01-27T08:48:33;51919.09;;;-142.34;29.04
12951;BME280;6540;50.858;7.232;2023-01-27T08:50:59;51953.41;;;-142.34;28.97
12951;BME280;6540;50.858;7.232;2023-01-27T08:53:25;51977.59;;;-142.34;28.92
12951;BME280;6540;50.858;7.232;2023-01-27T08:55:55;51931.19;;;-142.34;28.87
12951;BME280;6540;50.858;7.232;2023-01-27T08:58:21;51973.56;;;-142.34;29.22
12951;BME280;6540;50.858;7.232;2023-01-27T09:00:47;51927.16;;;-142.34;28.81
12951;BME280;6540;50.858;7.232;2023-01-27T09:03:12;51921.13;;;-142.34;28.63
12951;BME280;6540;50.858;7.232;2023-01-27T09:05:38;51902.97;;;-142.34;28.82
12951;BME280;6540;50.858;7.232;2023-01-27T09:08:05;51991.72;;;-142.34;29.67
12951;BME280;6540;50.858;7.232;2023-01-27T09:10:30;51917.06;;;-142.34;29.29
12951;BME280;6540;50.858;7.232;2023-01-27T09:12:56;51943.31;;;-142.34;29.21
12951;BME280;6540;50.858;7.232;2023-01-27T09:15:22;51971.53;;;-142.34;29.12
12951;BME280;6540;50.858;7.232;2023-01-27T09:17:47;51943.31;;;-142.34;28.77
12951;BME280;6540;50.858;7.232;2023-01-27T09:20:13;51945.31;;;-142.34;28.97
12951;BME280;6540;50.858;7.232;2023-01-27T09:22:39;51925.16;;;-142.34;29.01
12951;BME280;6540;50.858;7.232;2023-01-27T09:25:06;51911.03;;;-142.34;28.65
12951;BME280;6540;50.858;7.232;2023-01-27T09:27:32;51949.34;;;-142.34;28.90
12951;BME280;6540;50.858;7.232;2023-01-27T09:29:57;51913.03;;;-142.34;30.48
12951;BME280;6540;50.858;7.232;2023-01-27T09:32:23;51917.06;;;-142.34;29.86
12951;BME280;6540;50.858;7.232;2023-01-27T09:34:48;51919.09;;;-142.34;31.58
12951;BME280;6540;50.858;7.232;2023-01-27T09:37:13;51939.28;;;-142.34;31.06
12951;BME280;6540;50.858;7.232;2023-01-27T09:39:43;51927.16;;;-142.34;30.01
12951;BME280;6540;50.858;7.232;2023-01-27T09:48:13;51935.25;;;-142.34;30.73
12951;BME280;6540;50.858;7.232;2023-01-27T09:50:45;51931.19;;;-142.34;31.95
12951;BME280;6540;50.858;7.232;2023-01-27T09:58:47;51975.59;;;-142.34;29.73
12951;BME280;6540;50.858;7.232;2023-01-27T10:07:32;51919.09;;;-142.34;30.25
12951;BME280;6540;50.858;7.232;2023-01-27T10:21:20;51949.34;;;-142.34;31.63
12951;BME280;6540;50.858;7.232;2023-01-27T10:24:04;51943.31;;;-142.34;31.69
12951;BME280;6540;50.858;7.232;2023-01-27T10:26:46;51919.09;;;-142.34;31.06
12951;BME280;6540;50.858;7.232;2023-01-27T10:32:09;51931.19;;;-142.34;31.67
12951;BME280;6540;50.858;7.232;2023-01-27T10:34:44;51945.31;;;-142.34;29.31
12951;BME280;6540;50.858;7.232;2023-01-27T10:37:28;51943.31;;;-142.34;30.32
12951;BME280;6540;50.858;7.232;2023-01-27T10:40:03;51945.31;;;-142.34;30.00
12951;BME280;6540;50.858;7.232;2023-01-27T10:42:38;51919.09;;;-142.34;30.92
12951;BME280;6540;50.858;7.232;2023-01-27T10:45:29;51943.31;;;-142.34;31.01
12951;BME280;6540;50.858;7.232;2023-01-27T10:48:33;51935.25;;;-142.34;32.36
12951;BME280;6540;50.858;7.232;2023-01-27T10:51:10;51927.16;;;-142.34;30.89
12951;BME280;6540;50.858;7.232;2023-01-27T10:54:36;51927.16;;;-142.34;32.19
12951;BME280;6540;50.858;7.232;2023-01-27T10:59:25;51935.25;;;-142.34;30.34
12951;BME280;6540;50.858;7.232;2023-01-27T11:04:51;51979.63;;;-142.34;30.64
12951;BME280;6540;50.858;7.232;2023-01-27T11:07:19;51955.41;;;-142.34;30.35
12951;BME280;6540;50.858;7.232;2023-01-27T11:10:01;51947.34;;;-142.34;31.84
12951;BME280;6540;50.858;7.232;2023-01-27T11:12:34;51951.38;;;-142.34;30.64
12951;BME280;6540;50.858;7.232;2023-01-27T11:15:01;51941.28;;;-142.34;32.35
12951;BME280;6540;50.858;7.232;2023-01-27T11:18:09;51931.19;;;-142.34;30.92
12951;BME280;6540;50.858;7.232;2023-01-27T11:20:42;51898.94;;;-142.34;31.94
12951;BME280;6540;50.858;7.232;2023-01-27T11:23:12;51959.44;;;-142.34;31.86
12951;BME280;6540;50.858;7.232;2023-01-27T11:25:56;51979.63;;;-142.34;31.52
12951;BME280;6540;50.858;7.232;2023-01-27T11:34:30;51977.59;;;-142.34;30.99
12951;BME280;6540;50.858;7.232;2023-01-27T11:36:58;51995.75;;;-142.34;32.69
12951;BME280;6540;50.858;7.232;2023-01-27T11:39:26;51921.13;;;-142.34;32.14
12951;BME280;6540;50.858;7.232;2023-01-27T11:41:56;51933.22;;;-142.34;34.04
12951;BME280;6540;50.858;7.232;2023-01-27T11:44:25;51945.31;;;-142.34;31.10
12951;BME280;6540;50.858;7.232;2023-01-27T11:46:52;51927.16;;;-142.34;33.66
12951;BME280;6540;50.858;7.232;2023-01-27T11:49:33;51911.03;;;-142.34;31.73
12951;BME280;6540;50.858;7.232;2023-01-27T11:52:01;51947.34;;;-142.34;32.14
12951;BME280;6540;50.858;7.232;2023-01-27T11:54:35;51963.47;;;-142.34;33.35
12951;BME280;6540;50.858;7.232;2023-01-27T11:57:04;51931.19;;;-142.34;31.94
12951;BME280;6540;50.858;7.232;2023-01-27T11:59:32;51923.13;;;-142.34;32.53
12951;BME280;6540;50.858;7.232;2023-01-27T12:07:57;51904.97;;;-142.34;32.62
12951;BME280;6540;50.858;7.232;2023-01-27T12:10:31;51993.75;;;-142.34;31.71
12951;BME280;6540;50.858;7.232;2023-01-27T12:13:13;51931.19;;;-142.34;31.35
12951;BME280;6540;50.858;7.232;2023-01-27T12:15:48;51965.50;;;-142.34;31.60
12951;BME280;6540;50.858;7.232;2023-01-27T12:18:15;51945.31;;;-142.34;33.24
12951;BME280;6540;50.858;7.232;2023-01-27T12:20:43;51941.28;;;-142.34;30.52
12951;BME280;6540;50.858;7.232;2023-01-27T12:23:30;51951.38;;;-142.34;29.59
12951;BME280;6540;50.858;7.232;2023-01-27T12:26:04;51985.66;;;-142.34;30.68
12951;BME280;6540;50.858;7.232;2023-01-27T12:28:50;51959.44;;;-142.34;31.32
12951;BME280;6540;50.858;7.232;2023-01-27T12:31:17;51923.13;;;-142.34;32.78
12951;BME280;6540;50.858;7.232;2023-01-27T12:33:54;51979.63;;;-142.34;32.57
12951;BME280;6540;50.858;7.232;2023-01-27T12:36:22;51959.44;;;-142.34;31.96
12951;BME280;6540;50.858;7.232;2023-01-27T12:38:57;51943.31;;;-142.34;31.14
12951;BME280;6540;50.858;7.232;2023-01-27T12:41:30;51945.31;;;-142.34;30.00
12951;BME280;6540;50.858;7.232;2023-01-27T12:46:26;51913.03;;;-142.34;31.67
12951;BME280;6540;50.858;7.232;2023-01-27T12:48:59;51943.31;;;-142.34;32.37
12951;BME280;6540;50.858;7.232;2023-01-27T12:52:03;51955.41;;;-142.34;30.79
12951;BME280;6540;50.858;7.232;2023-01-27T12:54:31;51935.25;;;-142.34;29.75
12951;BME280;6540;50.858;7.232;2023-01-27T12:57:01;51951.38;;;-142.34;32.62
12951;BME280;6540;50.858;7.232;2023-01-27T12:59:27;51971.53;;;-142.34;31.90
12951;BME280;6540;50.858;7.232;2023-01-27T13:02:08;51933.22;;;-142.34;30.89
12951;BME280;6540;50.858;7.232;2023-01-27T13:04:39;51961.47;;;-142.34;32.87
12951;BME280;6540;50.858;7.232;2023-01-27T13:07:10;51943.31;;;-142.34;31.22
12951;BME280;6540;50.858;7.232;2023-01-27T13:09:48;51955.41;;;-142.34;30.44
12951;BME280;6540;50.858;7.232;2023-01-27T13:12:23;51941.28;;;-142.34;30.31
12951;BME280;6540;50.858;7.232;2023-01-27T13:14:52;51947.34;;;-142.34;30.16
12951;BME280;6540;50.858;7.232;2023-01-27T13:17:26;51963.47;;;-142.34;29.85
12951;BME280;6540;50.858;7.232;2023-01-27T13:19:52;51983.66;;;-142.34;29.73
12951;BME280;6540;50.858;7.232;2023-01-27T13:22:22;51939.28;;;-142.34;31.22
12951;BME280;6540;50.858;7.232;2023-01-27T13:24:51;51900.94;;;-142.34;30.47
12951;BME280;6540;50.858;7.232;2023-01-27T13:27:20;51943.31;;;-142.34;32.47
12951;BME280;6540;50.858;7.232;2023-01-27T13:30:02;51931.19;;;-142.34;29.44
12951;BME280;6540;50.858;7.232;2023-01-27T13:32:37;51935.25;;;-142.34;30.21
12951;BME280;6540;50.858;7.232;2023-01-27T13:35:19;51963.47;;;-142.34;31.79
12951;BME280;6540;50.858;7.232;2023-01-27T13:37:57;51939.28;;;-142.34;31.91
12951;BME280;6540;50.858;7.232;2023-01-27T13:40:36;51907.00;;;-142.34;30.54
12951;BME280;6540;50.858;7.232;2023-01-27T13:45:53;51933.22;;;-142.34;31.64
12951;BME280;6540;50.858;7.232;2023-01-27T13:48:25;51935.25;;;-142.34;30.80
12951;BME280;6540;50.858;7.232;2023-01-27T13:51:16;51971.53;;;-142.34;31.15
12951;BME280;6540;50.858;7.232;2023-01-27T13:53:44;51902.97;;;-142.34;31.01
12951;BME280;6540;50.858;7.232;2023-01-27T13:58:59;51907.00;;;-142.34;31.23
12951;BME280;6540;50.858;7.232;2023-01-27T14:06:59;51921.13;;;-142.34;29.21